Time,TemperatureF,DewpointF,PressureIn,WindDirection,WindDirectionDegrees,WindSpeedMPH,WindSpeedGustMPH,Humidity,HourlyPrecipIn,Conditions,Clouds,dailyrainin,SoftwareType,DateUTC
2013-03-08 00:02:00,41.7,41.2,30.11,NW,324,3.0,9.0,98,0.00,,,0.04,meteohub,2013-03-08 08:02:00,
2013-03-08 00:07:00,41.7,41.2,30.11,NW,314,4.0,6.0,98,0.00,,,0.00,meteohub,2013-03-08 08:07:00,
2013-03-08 00:12:00,41.9,41.4,30.11,NNW,344,5.0,6.0,98,0.00,,,0.00,meteohub,2013-03-08 08:12:00,
2013-03-08 00:17:00,42.1,41.5,30.11,NW,325,4.0,6.0,98,0.00,,,0.00,meteohub,2013-03-08 08:17:00,
2013-03-08 00:22:00,41.9,41.4,30.11,NNW,328,5.0,6.0,98,0.00,,,0.00,meteohub,2013-03-08 08:22:00,
2013-03-08 00:27:00,42.1,41.5,30.11,NNW,328,4.0,6.0,98,0.00,,,0.00,meteohub,2013-03-08 08:27:00,
2013-03-08 00:32:00,42.1,41.5,30.11,NW,316,0.0,6.0,98,0.00,,,0.00,meteohub,2013-03-08 08:32:00,
2013-03-08 00:37:00,42.1,41.5,30.11,NNW,341,3.0,6.0,98,0.00,,,0.00,meteohub,2013-03-08 08:37:00,
2013-03-08 00:42:00,42.3,41.7,30.11,NNW,337,0.0,8.0,98,0.00,,,0.00,meteohub,2013-03-08 08:42:00,
2013-03-08 00:47:00,42.3,41.7,30.11,North,353,0.0,8.0,98,0.00,,,0.00,meteohub,2013-03-08 08:47:00,
2013-03-08 00:52:00,42.3,41.7,30.11,NW,309,0.0,8.0,98,0.00,,,0.00,meteohub,2013-03-08 08:52:00,
2013-03-08 00:57:00,42.3,41.7,30.11,North,0,4.0,4.0,98,0.00,,,0.00,meteohub,2013-03-08 08:57:00,
2013-03-08 01:02:00,42.4,41.9,30.11,NNW,327,4.0,4.0,98,0.00,,,0.00,meteohub,2013-03-08 09:02:00,
2013-03-08 01:07:00,42.4,41.9,30.11,NW,321,4.0,5.0,98,0.00,,,0.00,meteohub,2013-03-08 09:07:00,
2013-03-08 01:12:00,42.4,41.9,30.11,NNW,346,3.0,5.0,98,0.00,,,0.00,meteohub,2013-03-08 09:12:00,
2013-03-08 01:17:00,42.4,41.9,30.11,North,357,0.0,5.0,98,0.00,,,0.00,meteohub,2013-03-08 09:17:00,
2013-03-08 01:22:00,42.4,41.9,30.11,North,357,0.0,4.0,98,0.00,,,0.00,meteohub,2013-03-08 09:22:00,
2013-03-08 01:27:00,42.4,41.9,30.11,North,357,4.0,4.0,98,0.00,,,0.00,meteohub,2013-03-08 09:27:00,
2013-03-08 01:33:00,42.6,42.1,30.11,North,357,5.0,5.0,98,0.00,,,0.00,meteohub,2013-03-08 09:33:00,
2013-03-08 01:38:00,42.6,42.1,30.11,North,353,5.0,6.0,98,0.00,,,0.00,meteohub,2013-03-08 09:38:00,
2013-03-08 01:43:00,42.6,42.1,30.11,NNW,343,6.0,8.0,98,0.00,,,0.00,meteohub,2013-03-08 09:43:00,
2013-03-08 01:48:00,42.4,41.9,30.11,NNW,334,8.0,8.0,98,0.00,,,0.00,meteohub,2013-03-08 09:48:00,
2013-03-08 01:53:00,42.4,41.9,30.11,NW,307,5.0,8.0,98,0.00,,,0.00,meteohub,2013-03-08 09:53:00,
2013-03-08 01:58:00,42.4,41.9,30.11,North,353,8.0,8.0,98,0.00,,,0.00,meteohub,2013-03-08 09:58:00,
2013-03-08 02:03:00,42.4,41.9,30.11,WNW,299,5.0,9.0,98,0.00,,,0.00,meteohub,2013-03-08 10:03:00,
2013-03-08 02:08:00,42.4,41.9,30.11,NW,306,8.0,11.0,98,0.00,,,0.00,meteohub,2013-03-08 10:08:00,
2013-03-08 02:13:00,42.4,41.9,30.11,NNW,344,5.0,11.0,98,0.00,,,0.00,meteohub,2013-03-08 10:13:00,
2013-03-08 02:18:00,42.4,41.9,30.11,NNW,335,5.0,8.0,98,0.00,,,0.00,meteohub,2013-03-08 10:18:00,
2013-03-08 02:23:00,42.4,41.9,30.11,NNW,344,4.0,8.0,98,0.00,,,0.00,meteohub,2013-03-08 10:23:00,
2013-03-08 02:28:00,42.6,42.1,30.11,NNW,332,3.0,6.0,98,0.00,,,0.00,meteohub,2013-03-08 10:28:00,
2013-03-08 02:33:00,42.4,41.9,30.11,North,0,5.0,6.0,98,0.00,,,0.00,meteohub,2013-03-08 10:33:00,
2013-03-08 02:38:00,42.6,42.1,30.11,NNW,343,5.0,7.0,98,0.00,,,0.00,meteohub,2013-03-08 10:38:00,
2013-03-08 02:43:00,42.6,42.1,30.11,NNW,335,3.0,7.0,98,0.00,,,0.00,meteohub,2013-03-08 10:43:00,
2013-03-08 02:48:00,42.6,42.1,30.11,North,0,4.0,7.0,98,0.00,,,0.00,meteohub,2013-03-08 10:48:00,
2013-03-08 02:53:00,42.8,42.1,30.11,North,353,3.0,6.0,97,0.00,,,0.00,meteohub,2013-03-08 10:53:00,
2013-03-08 02:58:00,42.6,42.1,30.11,NW,323,3.0,6.0,98,0.00,,,0.00,meteohub,2013-03-08 10:58:00,
2013-03-08 03:03:00,42.6,42.1,30.11,WNW,303,3.0,6.0,98,0.00,,,0.00,meteohub,2013-03-08 11:03:00,
2013-03-08 03:08:00,42.6,42.1,30.11,NNW,327,4.0,5.0,98,0.00,,,0.00,meteohub,2013-03-08 11:08:00,
2013-03-08 03:13:00,42.6,42.1,30.11,NNW,328,5.0,5.0,98,0.00,,,0.00,meteohub,2013-03-08 11:13:00,
2013-03-08 03:18:00,42.6,42.1,30.11,NNW,337,4.0,6.0,98,0.00,,,0.00,meteohub,2013-03-08 11:18:00,
2013-03-08 03:23:00,42.4,41.9,30.08,NNW,348,4.0,6.0,98,0.00,,,0.00,meteohub,2013-03-08 11:23:00,
2013-03-08 03:28:00,42.3,41.5,30.08,NNW,345,4.0,6.0,97,0.00,,,0.00,meteohub,2013-03-08 11:28:00,
2013-03-08 03:34:00,42.1,41.4,30.08,NNW,333,3.0,6.0,97,0.00,,,0.00,meteohub,2013-03-08 11:34:00,
2013-03-08 03:39:00,41.9,41.2,30.11,NW,320,3.0,6.0,97,0.00,,,0.00,meteohub,2013-03-08 11:39:00,
2013-03-08 03:44:00,41.9,41.2,30.11,NNW,333,4.0,6.0,97,0.00,,,0.00,meteohub,2013-03-08 11:44:00,
2013-03-08 03:49:00,42.1,41.5,30.11,NW,312,3.0,5.0,98,0.00,,,0.00,meteohub,2013-03-08 11:49:00,
2013-03-08 03:54:00,42.3,41.7,30.08,North,353,3.0,6.0,98,0.00,,,0.00,meteohub,2013-03-08 11:54:00,
2013-03-08 03:59:00,42.3,41.7,30.08,North,0,6.0,6.0,98,0.00,,,0.00,meteohub,2013-03-08 11:59:00,
2013-03-08 04:04:00,42.3,41.7,30.08,NNW,330,4.0,6.0,98,0.00,,,0.00,meteohub,2013-03-08 12:04:00,
2013-03-08 04:09:00,42.3,41.7,30.11,NNW,330,0.0,6.0,98,0.00,,,0.00,meteohub,2013-03-08 12:09:00,
2013-03-08 04:14:00,42.3,41.7,30.11,NNW,330,0.0,6.0,98,0.00,,,0.00,meteohub,2013-03-08 12:14:00,
2013-03-08 04:19:00,42.3,41.7,30.11,NNW,330,0.0,5.0,98,0.00,,,0.00,meteohub,2013-03-08 12:19:00,
2013-03-08 04:24:00,42.4,41.9,30.11,NNE,24,3.0,3.0,98,0.00,,,0.00,meteohub,2013-03-08 12:24:00,
2013-03-08 04:29:00,42.4,41.9,30.11,NW,326,0.0,4.0,98,0.00,,,0.00,meteohub,2013-03-08 12:29:00,
2013-03-08 04:34:00,42.4,41.9,30.11,NNW,328,3.0,4.0,98,0.00,,,0.00,meteohub,2013-03-08 12:34:00,
2013-03-08 04:39:00,42.4,41.9,30.11,North,353,4.0,4.0,98,0.00,,,0.00,meteohub,2013-03-08 12:39:00,
2013-03-08 04:44:00,42.4,41.7,30.11,North,353,5.0,6.0,97,0.00,,,0.00,meteohub,2013-03-08 12:44:00,
2013-03-08 04:49:00,42.3,41.2,30.11,NNW,342,8.0,8.0,96,0.00,,,0.00,meteohub,2013-03-08 12:49:00,
2013-03-08 04:54:00,42.3,41.0,30.11,North,7,6.0,9.0,95,0.00,,,0.00,meteohub,2013-03-08 12:54:00,
2013-03-08 04:59:00,42.3,41.0,30.11,North,0,5.0,10.0,95,0.00,,,0.00,meteohub,2013-03-08 12:59:00,
2013-03-08 05:04:00,42.3,41.0,30.11,North,11,5.0,10.0,95,0.00,,,0.00,meteohub,2013-03-08 13:04:00,
2013-03-08 05:09:00,42.3,41.0,30.11,North,357,3.0,10.0,95,0.00,,,0.00,meteohub,2013-03-08 13:09:00,
2013-03-08 05:14:00,42.3,40.6,30.11,North,0,4.0,8.0,94,0.00,,,0.00,meteohub,2013-03-08 13:14:00,
2013-03-08 05:19:00,42.3,40.6,30.11,NNW,343,3.0,8.0,94,0.00,,,0.00,meteohub,2013-03-08 13:19:00,
2013-03-08 05:24:00,42.3,40.6,30.11,North,0,0.0,6.0,94,0.00,,,0.00,meteohub,2013-03-08 13:24:00,
2013-03-08 05:29:00,42.3,40.6,30.11,North,0,3.0,5.0,94,0.00,,,0.00,meteohub,2013-03-08 13:29:00,
2013-03-08 05:34:00,42.3,40.6,30.11,NNW,345,3.0,4.0,94,0.00,,,0.00,meteohub,2013-03-08 13:34:00,
2013-03-08 05:39:00,42.3,40.6,30.11,NNW,331,0.0,4.0,94,0.00,,,0.00,meteohub,2013-03-08 13:39:00,
2013-03-08 05:44:00,42.3,40.6,30.11,NNW,331,0.0,4.0,94,0.00,,,0.00,meteohub,2013-03-08 13:44:00,
2013-03-08 05:49:00,42.1,40.5,30.11,WNW,301,0.0,4.0,94,0.00,,,0.00,meteohub,2013-03-08 13:49:00,
2013-03-08 05:54:00,42.1,40.5,30.11,NNW,329,0.0,3.0,94,0.00,,,0.00,meteohub,2013-03-08 13:54:00,
2013-03-08 05:59:00,42.1,40.5,30.11,NNW,337,6.0,0.0,94,0.00,,,0.00,meteohub,2013-03-08 13:59:00,
2013-03-08 06:04:00,42.1,40.5,30.11,NW,314,3.0,6.0,94,0.00,,,0.00,meteohub,2013-03-08 14:04:00,
2013-03-08 06:09:00,42.1,40.5,30.11,North,353,3.0,6.0,94,0.00,,,0.00,meteohub,2013-03-08 14:09:00,
2013-03-08 06:14:00,42.1,40.5,30.11,NW,321,6.0,6.0,94,0.00,,,0.00,meteohub,2013-03-08 14:14:00,
2013-03-08 06:19:00,42.1,40.5,30.11,NW,310,5.0,7.0,94,0.00,,,0.00,meteohub,2013-03-08 14:19:00,
2013-03-08 06:24:00,42.1,40.5,30.11,NW,320,4.0,8.0,94,0.00,,,0.00,meteohub,2013-03-08 14:24:00,
2013-03-08 06:29:00,41.9,40.3,30.11,NW,308,4.0,8.0,94,0.00,,,0.00,meteohub,2013-03-08 14:29:00,
2013-03-08 06:34:00,41.5,39.7,30.11,NNW,328,5.0,8.0,93,0.00,,,0.00,meteohub,2013-03-08 14:34:00,
2013-03-08 06:39:00,41.7,40.1,30.11,NW,321,5.0,6.0,94,0.00,,,0.00,meteohub,2013-03-08 14:39:00,
2013-03-08 06:44:00,41.7,40.1,30.11,NNW,338,4.0,6.0,94,0.00,,,0.00,meteohub,2013-03-08 14:44:00,
2013-03-08 06:49:00,41.9,40.3,30.11,North,7,3.0,6.0,94,0.00,,,0.00,meteohub,2013-03-08 14:49:00,
2013-03-08 06:55:00,42.1,40.5,30.11,NNW,333,3.0,6.0,94,0.00,,,0.00,meteohub,2013-03-08 14:55:00,
2013-03-08 07:00:00,42.1,40.5,30.11,North,4,4.0,6.0,94,0.00,,,0.00,meteohub,2013-03-08 15:00:00,
2013-03-08 07:05:00,42.3,40.6,30.11,North,357,4.0,6.0,94,0.00,,,0.00,meteohub,2013-03-08 15:05:00,
2013-03-08 07:10:00,42.3,40.6,30.11,NNW,329,2.0,6.0,94,0.00,,,0.00,meteohub,2013-03-08 15:10:00,
2013-03-08 07:15:00,42.3,40.6,30.11,North,0,4.0,5.0,94,0.00,,,0.00,meteohub,2013-03-08 15:15:00,
2013-03-08 07:20:00,42.3,40.5,30.11,North,357,4.0,11.0,93,0.00,,,0.00,meteohub,2013-03-08 15:20:00,
2013-03-08 07:25:00,42.3,39.7,30.11,North,357,4.0,11.0,91,0.00,,,0.00,meteohub,2013-03-08 15:25:00,
2013-03-08 07:30:00,42.3,39.2,30.11,North,9,6.0,11.0,89,0.00,,,0.00,meteohub,2013-03-08 15:30:00,
2013-03-08 07:35:00,42.3,39.0,30.11,North,353,4.0,8.0,88,0.00,,,0.00,meteohub,2013-03-08 15:35:00,
2013-03-08 07:40:00,42.4,38.8,30.11,North,357,6.0,8.0,87,0.00,,,0.00,meteohub,2013-03-08 15:40:00,
2013-03-08 07:45:00,42.4,38.5,30.11,North,0,8.0,8.0,86,0.00,,,0.00,meteohub,2013-03-08 15:45:00,
2013-03-08 07:50:00,42.4,37.9,30.11,NNW,346,9.0,10.0,84,0.00,,,0.00,meteohub,2013-03-08 15:50:00,
2013-03-08 07:55:00,42.4,37.6,30.11,North,0,4.0,11.0,83,0.00,,,0.00,meteohub,2013-03-08 15:55:00,
2013-03-08 08:00:00,42.6,37.8,30.11,NNW,339,8.0,11.0,83,0.00,,,0.00,meteohub,2013-03-08 16:00:00,
2013-03-08 08:05:00,42.6,38.1,30.11,North,0,8.0,11.0,84,0.00,,,0.00,meteohub,2013-03-08 16:05:00,
2013-03-08 08:10:00,42.8,37.9,30.14,NNW,338,9.0,11.0,83,0.00,,,0.00,meteohub,2013-03-08 16:10:00,
2013-03-08 08:15:00,42.8,37.9,30.14,North,353,8.0,11.0,83,0.00,,,0.00,meteohub,2013-03-08 16:15:00,
2013-03-08 08:20:00,42.8,38.3,30.14,WNW,297,9.0,11.0,84,0.00,,,0.00,meteohub,2013-03-08 16:20:00,
2013-03-08 08:25:00,42.8,38.3,30.14,North,0,8.0,11.0,84,0.00,,,0.00,meteohub,2013-03-08 16:25:00,
2013-03-08 08:30:00,43.3,37.6,30.14,North,0,8.0,11.0,80,0.00,,,0.00,meteohub,2013-03-08 16:30:00,
2013-03-08 08:35:00,43.3,36.3,30.14,North,0,8.0,11.0,76,0.00,,,0.00,meteohub,2013-03-08 16:35:00,
2013-03-08 08:40:00,43.3,36.7,30.14,North,0,6.0,10.0,77,0.00,,,0.00,meteohub,2013-03-08 16:40:00,
2013-03-08 08:45:00,43.5,35.8,30.14,North,353,5.0,8.0,74,0.00,,,0.00,meteohub,2013-03-08 16:45:00,
2013-03-08 08:50:00,43.5,34.7,30.14,NNW,336,6.0,9.0,71,0.00,,,0.00,meteohub,2013-03-08 16:50:00,
2013-03-08 08:55:00,43.7,35.2,30.14,NNE,17,8.0,11.0,72,0.00,,,0.00,meteohub,2013-03-08 16:55:00,
2013-03-08 09:00:00,43.7,36.3,30.14,North,1,6.0,11.0,75,0.00,,,0.00,meteohub,2013-03-08 17:00:00,
2013-03-08 09:05:00,43.9,37.2,30.14,NNE,16,8.0,11.0,77,0.00,,,0.00,meteohub,2013-03-08 17:05:00,
2013-03-08 09:10:00,43.9,36.5,30.14,North,2,6.0,11.0,75,0.00,,,0.00,meteohub,2013-03-08 17:10:00,
2013-03-08 09:15:00,44.1,36.0,30.14,NE,37,5.0,11.0,73,0.00,,,0.00,meteohub,2013-03-08 17:15:00,
2013-03-08 09:20:00,44.1,35.6,30.14,North,4,5.0,11.0,72,0.00,,,0.00,meteohub,2013-03-08 17:20:00,
2013-03-08 09:25:00,44.1,36.0,30.14,NNE,25,8.0,9.0,73,0.00,,,0.00,meteohub,2013-03-08 17:25:00,
2013-03-08 09:30:00,44.4,36.7,30.14,NNE,31,3.0,9.0,74,0.00,,,0.00,meteohub,2013-03-08 17:30:00,
2013-03-08 09:36:00,44.6,36.1,30.14,NE,34,4.0,8.0,72,0.00,,,0.00,meteohub,2013-03-08 17:36:00,
2013-03-08 09:41:00,44.6,36.1,30.14,NE,38,5.0,8.0,72,0.00,,,0.00,meteohub,2013-03-08 17:41:00,
2013-03-08 09:46:00,44.8,36.7,30.14,ENE,75,4.0,6.0,73,0.00,,,0.00,meteohub,2013-03-08 17:46:00,
2013-03-08 09:51:00,45.0,37.2,30.14,NE,44,4.0,8.0,74,0.00,,,0.00,meteohub,2013-03-08 17:51:00,
2013-03-08 09:56:00,45.1,35.2,30.14,NE,48,6.0,8.0,68,0.00,,,0.00,meteohub,2013-03-08 17:56:00,
2013-03-08 10:01:00,45.3,34.7,30.14,North,353,5.0,9.0,66,0.00,,,0.00,meteohub,2013-03-08 18:01:00,
2013-03-08 10:06:00,45.5,33.3,30.14,North,357,4.0,9.0,62,0.00,,,0.00,meteohub,2013-03-08 18:06:00,
2013-03-08 10:11:00,45.5,32.4,30.14,NNW,335,6.0,9.0,60,0.00,,,0.00,meteohub,2013-03-08 18:11:00,
2013-03-08 10:16:00,45.5,32.0,30.14,North,3,8.0,9.0,59,0.00,,,0.00,meteohub,2013-03-08 18:16:00,
2013-03-08 10:21:00,45.3,31.8,30.14,NNE,28,5.0,9.0,59,0.00,,,0.00,meteohub,2013-03-08 18:21:00,
2013-03-08 10:26:00,46.8,33.3,30.14,NE,39,5.0,9.0,59,0.00,,,0.00,meteohub,2013-03-08 18:26:00,
2013-03-08 10:31:00,47.8,30.6,30.14,NNE,33,4.0,8.0,51,0.00,,,0.00,meteohub,2013-03-08 18:31:00,
2013-03-08 10:36:00,48.9,31.1,30.14,East,86,4.0,8.0,50,0.00,,,0.00,meteohub,2013-03-08 18:36:00,
2013-03-08 10:41:00,50.5,30.6,30.14,East,86,4.0,8.0,46,0.00,,,0.00,meteohub,2013-03-08 18:41:00,
2013-03-08 10:46:00,52.0,29.7,30.14,NE,41,3.0,6.0,42,0.00,,,0.00,meteohub,2013-03-08 18:46:00,
2013-03-08 10:51:00,52.5,28.2,30.14,NE,35,5.0,5.0,39,0.00,,,0.00,meteohub,2013-03-08 18:51:00,
2013-03-08 10:56:00,52.7,26.4,30.14,ENE,73,4.0,6.0,36,0.00,,,0.00,meteohub,2013-03-08 18:56:00,
2013-03-08 11:01:00,53.1,25.3,30.14,ENE,65,4.0,6.0,34,0.00,,,0.00,meteohub,2013-03-08 19:01:00,
2013-03-08 11:06:00,53.2,24.8,30.14,ESE,106,4.0,6.0,33,0.00,,,0.00,meteohub,2013-03-08 19:06:00,
2013-03-08 11:11:00,53.6,25.2,30.14,East,92,3.0,5.0,33,0.00,,,0.00,meteohub,2013-03-08 19:11:00,
2013-03-08 11:16:00,54.3,24.3,30.14,NNW,345,3.0,5.0,31,0.00,,,0.00,meteohub,2013-03-08 19:16:00,
2013-03-08 11:21:00,54.7,24.6,30.14,NE,55,0.0,4.0,31,0.00,,,0.00,meteohub,2013-03-08 19:21:00,
2013-03-08 11:26:00,55.4,23.7,30.14,East,101,4.0,4.0,29,0.00,,,0.00,meteohub,2013-03-08 19:26:00,
2013-03-08 11:31:00,54.5,23.7,30.14,SE,126,5.0,5.0,30,0.00,,,0.00,meteohub,2013-03-08 19:31:00,
2013-03-08 11:36:00,54.1,24.1,30.14,NNE,32,4.0,5.0,31,0.00,,,0.00,meteohub,2013-03-08 19:36:00,
2013-03-08 11:41:00,55.6,26.2,30.14,ESE,104,0.0,5.0,32,0.00,,,0.00,meteohub,2013-03-08 19:41:00,
2013-03-08 11:46:00,53.6,21.2,30.14,East,98,2.0,5.0,28,0.00,,,0.00,meteohub,2013-03-08 19:46:00,
2013-03-08 11:51:00,51.8,22.8,30.14,SE,126,4.0,5.0,32,0.00,,,0.00,meteohub,2013-03-08 19:51:00,
2013-03-08 11:56:00,51.1,25.0,30.14,ESE,117,0.0,5.0,36,0.00,,,0.00,meteohub,2013-03-08 19:56:00,
2013-03-08 12:01:00,52.2,26.1,30.14,ENE,65,3.0,5.0,36,0.00,,,0.00,meteohub,2013-03-08 20:01:00,
2013-03-08 12:06:00,53.8,25.3,30.14,NE,50,4.0,5.0,33,0.00,,,0.00,meteohub,2013-03-08 20:06:00,
2013-03-08 12:11:00,54.3,24.3,30.14,NNE,30,3.0,4.0,31,0.00,,,0.00,meteohub,2013-03-08 20:11:00,
2013-03-08 12:16:00,54.3,24.3,30.14,North,349,4.0,5.0,31,0.00,,,0.00,meteohub,2013-03-08 20:16:00,
2013-03-08 12:21:00,55.2,22.6,30.14,East,85,0.0,5.0,28,0.00,,,0.00,meteohub,2013-03-08 20:21:00,
2013-03-08 12:26:00,56.7,24.8,30.14,East,85,4.0,5.0,29,0.00,,,0.00,meteohub,2013-03-08 20:26:00,
2013-03-08 12:31:00,57.4,24.6,30.14,NNE,25,2.0,4.0,28,0.00,,,0.00,meteohub,2013-03-08 20:31:00,
2013-03-08 12:36:00,56.7,23.9,30.14,North,0,5.0,5.0,28,0.00,,,0.00,meteohub,2013-03-08 20:36:00,
2013-03-08 12:41:00,56.3,22.8,30.14,North,353,4.0,5.0,27,0.00,,,0.00,meteohub,2013-03-08 20:41:00,
2013-03-08 12:46:00,54.5,22.1,30.14,NNW,338,0.0,6.0,28,0.00,,,0.00,meteohub,2013-03-08 20:46:00,
2013-03-08 12:51:00,54.1,22.6,30.14,NNW,338,0.0,6.0,29,0.00,,,0.00,meteohub,2013-03-08 20:51:00,
2013-03-08 12:56:00,54.3,21.9,30.14,NE,47,0.0,6.0,28,0.00,,,0.00,meteohub,2013-03-08 20:56:00,
2013-03-08 13:01:00,55.9,23.4,30.14,NNE,32,0.0,3.0,28,0.00,,,0.00,meteohub,2013-03-08 21:01:00,
2013-03-08 13:07:00,56.8,23.2,30.14,East,81,3.0,3.0,27,0.00,,,0.00,meteohub,2013-03-08 21:07:00,
2013-03-08 13:11:00,56.5,21.9,30.14,ENE,69,0.0,4.0,26,0.00,,,0.00,meteohub,2013-03-08 21:11:00,
2013-03-08 13:17:00,55.6,22.1,30.14,ESE,115,4.0,4.0,27,0.00,,,0.00,meteohub,2013-03-08 21:17:00,
2013-03-08 13:22:00,55.0,22.5,30.14,East,91,0.0,5.0,28,0.00,,,0.00,meteohub,2013-03-08 21:22:00,
2013-03-08 13:27:00,55.6,23.0,30.11,ENE,64,4.0,5.0,28,0.00,,,0.00,meteohub,2013-03-08 21:27:00,
2013-03-08 13:32:00,55.8,23.2,30.11,East,89,3.0,4.0,28,0.00,,,0.00,meteohub,2013-03-08 21:32:00,
2013-03-08 13:37:00,54.5,22.1,30.11,East,94,3.0,4.0,28,0.00,,,0.00,meteohub,2013-03-08 21:37:00,
2013-03-08 13:42:00,53.6,21.2,30.14,ENE,65,3.0,4.0,28,0.00,,,0.00,meteohub,2013-03-08 21:42:00,
2013-03-08 13:47:00,52.9,20.7,30.14,ESE,111,3.0,4.0,28,0.00,,,0.00,meteohub,2013-03-08 21:47:00,
2013-03-08 13:52:00,51.8,19.8,30.11,SE,141,3.0,4.0,28,0.00,,,0.00,meteohub,2013-03-08 21:52:00,
2013-03-08 13:57:00,52.2,20.1,30.11,ESE,108,0.0,4.0,28,0.00,,,0.00,meteohub,2013-03-08 21:57:00,
2013-03-08 14:02:00,52.7,21.4,30.11,ENE,57,0.0,4.0,29,0.00,,,0.00,meteohub,2013-03-08 22:02:00,
2013-03-08 14:07:00,52.7,21.4,30.14,North,2,6.0,6.0,29,0.00,,,0.00,meteohub,2013-03-08 22:07:00,
2013-03-08 14:12:00,52.2,22.5,30.14,NNE,18,6.0,6.0,31,0.00,,,0.00,meteohub,2013-03-08 22:12:00,
2013-03-08 14:17:00,51.4,24.1,30.14,NNE,25,8.0,8.0,34,0.00,,,0.00,meteohub,2013-03-08 22:17:00,
2013-03-08 14:22:00,51.1,25.0,30.14,NNE,25,4.0,8.0,36,0.00,,,0.00,meteohub,2013-03-08 22:22:00,
2013-03-08 14:27:00,51.6,25.5,30.11,ENE,74,4.0,8.0,36,0.00,,,0.00,meteohub,2013-03-08 22:27:00,
2013-03-08 14:32:00,51.6,24.8,30.11,NNE,28,8.0,8.0,35,0.00,,,0.00,meteohub,2013-03-08 22:32:00,
2013-03-08 14:37:00,51.3,25.2,30.11,NNE,21,6.0,10.0,36,0.00,,,0.00,meteohub,2013-03-08 22:37:00,
2013-03-08 14:42:00,50.7,25.3,30.14,NNE,23,4.0,10.0,37,0.00,,,0.00,meteohub,2013-03-08 22:42:00,
2013-03-08 14:47:00,50.9,25.5,30.14,NNE,17,3.0,10.0,37,0.00,,,0.00,meteohub,2013-03-08 22:47:00,
2013-03-08 14:52:00,51.1,25.7,30.14,NNE,24,8.0,8.0,37,0.00,,,0.00,meteohub,2013-03-08 22:52:00,
2013-03-08 14:57:00,51.1,25.7,30.14,NE,41,8.0,9.0,37,0.00,,,0.00,meteohub,2013-03-08 22:57:00,
2013-03-08 15:02:00,50.9,25.5,30.14,NNE,23,10.0,11.0,37,0.00,,,0.00,meteohub,2013-03-08 23:02:00,
2013-03-08 15:07:00,50.5,25.2,30.14,North,6,8.0,11.0,37,0.00,,,0.00,meteohub,2013-03-08 23:07:00,
2013-03-08 15:12:00,50.4,25.0,30.14,NNE,12,11.0,11.0,37,0.00,,,0.00,meteohub,2013-03-08 23:12:00,
2013-03-08 15:17:00,50.2,25.0,30.14,North,8,8.0,11.0,37,0.00,,,0.00,meteohub,2013-03-08 23:17:00,
2013-03-08 15:22:00,50.0,24.8,30.14,NNE,17,12.0,12.0,37,0.00,,,0.00,meteohub,2013-03-08 23:22:00,
2013-03-08 15:27:00,50.0,24.8,30.14,NNE,19,8.0,13.0,37,0.00,,,0.00,meteohub,2013-03-08 23:27:00,
2013-03-08 15:32:00,50.0,24.8,30.14,NNE,27,8.0,13.0,37,0.00,,,0.00,meteohub,2013-03-08 23:32:00,
2013-03-08 15:37:00,49.8,24.6,30.14,North,5,8.0,13.0,37,0.00,,,0.00,meteohub,2013-03-08 23:37:00,
2013-03-08 15:42:00,49.8,25.2,30.14,NNE,21,8.0,11.0,38,0.00,,,0.00,meteohub,2013-03-08 23:42:00,
2013-03-08 15:47:00,49.6,24.4,30.14,NNE,19,10.0,11.0,37,0.00,,,0.00,meteohub,2013-03-08 23:47:00,
2013-03-08 15:52:00,49.5,24.3,30.14,NNE,23,9.0,11.0,37,0.00,,,0.00,meteohub,2013-03-08 23:52:00,
2013-03-08 15:57:00,49.5,24.3,30.14,NNE,27,9.0,11.0,37,0.00,,,0.00,meteohub,2013-03-08 23:57:00,
2013-03-08 16:02:00,49.5,24.3,30.14,NNE,17,8.0,11.0,37,0.00,,,0.00,meteohub,2013-03-09 00:02:00,
2013-03-08 16:07:00,49.3,24.1,30.14,NNE,21,10.0,11.0,37,0.00,,,0.00,meteohub,2013-03-09 00:07:00,
2013-03-08 16:12:00,49.3,24.1,30.14,NNE,23,6.0,11.0,37,0.00,,,0.00,meteohub,2013-03-09 00:12:00,
2013-03-08 16:17:00,49.1,23.9,30.14,NNE,27,8.0,11.0,37,0.00,,,0.00,meteohub,2013-03-09 00:17:00,
2013-03-08 16:22:00,49.1,23.9,30.14,NNE,15,8.0,11.0,37,0.00,,,0.00,meteohub,2013-03-09 00:22:00,
2013-03-08 16:27:00,49.1,23.9,30.14,North,353,6.0,9.0,37,0.00,,,0.00,meteohub,2013-03-09 00:27:00,
2013-03-08 16:32:00,49.3,24.1,30.14,NW,318,8.0,8.0,37,0.00,,,0.00,meteohub,2013-03-09 00:32:00,
2013-03-08 16:37:00,49.3,22.8,30.14,North,0,6.0,9.0,35,0.00,,,0.00,meteohub,2013-03-09 00:37:00,
2013-03-08 16:42:00,49.3,23.5,30.11,WNW,300,8.0,9.0,36,0.00,,,0.00,meteohub,2013-03-09 00:42:00,
2013-03-08 16:47:00,49.3,22.8,30.11,North,357,9.0,9.0,35,0.00,,,0.00,meteohub,2013-03-09 00:47:00,
2013-03-08 16:52:00,49.1,23.9,30.11,North,353,5.0,11.0,37,0.00,,,0.00,meteohub,2013-03-09 00:52:00,
2013-03-08 16:57:00,48.9,23.7,30.14,NNE,16,9.0,12.0,37,0.00,,,0.00,meteohub,2013-03-09 00:57:00,
2013-03-08 17:02:00,48.7,23.0,30.14,North,0,10.0,12.0,36,0.00,,,0.00,meteohub,2013-03-09 01:02:00,
2013-03-08 17:07:00,48.7,23.0,30.14,North,6,8.0,13.0,36,0.00,,,0.00,meteohub,2013-03-09 01:07:00,
2013-03-08 17:12:00,48.6,23.5,30.14,North,0,8.0,13.0,37,0.00,,,0.00,meteohub,2013-03-09 01:12:00,
2013-03-08 17:17:00,48.4,23.4,30.14,North,1,9.0,13.0,37,0.00,,,0.00,meteohub,2013-03-09 01:17:00,
2013-03-08 17:22:00,48.2,23.2,30.14,North,353,11.0,13.0,37,0.00,,,0.00,meteohub,2013-03-09 01:22:00,
2013-03-08 17:27:00,48.0,23.0,30.14,North,357,10.0,13.0,37,0.00,,,0.00,meteohub,2013-03-09 01:27:00,
2013-03-08 17:32:00,47.8,22.8,30.14,North,4,10.0,15.0,37,0.00,,,0.00,meteohub,2013-03-09 01:32:00,
2013-03-08 17:37:00,47.7,22.6,30.17,North,8,8.0,15.0,37,0.00,,,0.00,meteohub,2013-03-09 01:37:00,
2013-03-08 17:42:00,47.5,22.5,30.17,North,10,9.0,15.0,37,0.00,,,0.00,meteohub,2013-03-09 01:42:00,
2013-03-08 17:47:00,47.3,22.3,30.17,North,353,5.0,13.0,37,0.00,,,0.00,meteohub,2013-03-09 01:47:00,
2013-03-08 17:52:00,47.1,22.1,30.17,NW,322,8.0,13.0,37,0.00,,,0.00,meteohub,2013-03-09 01:52:00,
2013-03-08 17:57:00,46.9,22.1,30.17,North,353,6.0,11.0,37,0.00,,,0.00,meteohub,2013-03-09 01:57:00,
2013-03-08 18:02:00,46.6,22.3,30.17,NW,324,7.0,11.0,38,0.00,,,0.00,meteohub,2013-03-09 02:02:00,
2013-03-08 18:07:00,46.2,22.6,30.17,North,353,5.0,11.0,39,0.00,,,0.00,meteohub,2013-03-09 02:07:00,
2013-03-08 18:12:00,46.0,22.5,30.17,North,0,3.0,8.0,39,0.00,,,0.00,meteohub,2013-03-09 02:12:00,
2013-03-08 18:17:00,45.3,24.1,30.17,WNW,301,3.0,8.0,43,0.00,,,0.00,meteohub,2013-03-09 02:17:00,
2013-03-08 18:22:00,45.0,25.9,30.17,NW,321,3.0,8.0,47,0.00,,,0.00,meteohub,2013-03-09 02:22:00,
2013-03-08 18:27:00,44.2,26.2,30.17,NW,321,3.0,6.0,49,0.00,,,0.00,meteohub,2013-03-09 02:27:00,
2013-03-08 18:32:00,43.9,26.4,30.17,NW,321,4.0,6.0,50,0.00,,,0.00,meteohub,2013-03-09 02:32:00,
2013-03-08 18:37:00,43.5,26.6,30.17,WNW,285,4.0,5.0,51,0.00,,,0.00,meteohub,2013-03-09 02:37:00,
2013-03-08 18:42:00,43.5,27.5,30.17,NW,321,2.0,4.0,53,0.00,,,0.00,meteohub,2013-03-09 02:42:00,
2013-03-08 18:47:00,43.2,28.6,30.17,NW,321,0.0,4.0,56,0.00,,,0.00,meteohub,2013-03-09 02:47:00,
2013-03-08 18:52:00,43.0,27.9,30.20,WNW,289,3.0,4.0,55,0.00,,,0.00,meteohub,2013-03-09 02:52:00,
2013-03-08 18:57:00,42.8,28.2,30.20,NW,316,3.0,4.0,56,0.00,,,0.00,meteohub,2013-03-09 02:57:00,
2013-03-08 19:02:00,42.6,27.5,30.20,NW,324,3.0,5.0,55,0.00,,,0.00,meteohub,2013-03-09 03:02:00,
2013-03-08 19:07:00,42.4,27.9,30.20,North,357,0.0,5.0,56,0.00,,,0.00,meteohub,2013-03-09 03:07:00,
2013-03-08 19:12:00,42.4,28.2,30.20,NW,309,3.0,5.0,57,0.00,,,0.00,meteohub,2013-03-09 03:12:00,
2013-03-08 19:17:00,42.3,28.6,30.20,WNW,295,3.0,4.0,58,0.00,,,0.00,meteohub,2013-03-09 03:17:00,
2013-03-08 19:23:00,42.1,28.8,30.20,WNW,295,4.0,4.0,59,0.00,,,0.00,meteohub,2013-03-09 03:23:00,
2013-03-08 19:28:00,41.7,29.3,30.20,WNW,295,3.0,4.0,61,0.00,,,0.00,meteohub,2013-03-09 03:28:00,
2013-03-08 19:33:00,41.7,30.0,30.20,WNW,289,4.0,4.0,63,0.00,,,0.00,meteohub,2013-03-09 03:33:00,
2013-03-08 19:38:00,41.5,30.2,30.17,NW,321,4.0,5.0,64,0.00,,,0.00,meteohub,2013-03-09 03:38:00,
2013-03-08 19:43:00,41.4,30.0,30.17,NW,321,3.0,6.0,64,0.00,,,0.00,meteohub,2013-03-09 03:43:00,
2013-03-08 19:48:00,41.2,30.7,30.17,WNW,301,4.0,6.0,66,0.00,,,0.00,meteohub,2013-03-09 03:48:00,
2013-03-08 19:53:00,41.2,30.4,30.20,NW,309,3.0,6.0,65,0.00,,,0.00,meteohub,2013-03-09 03:53:00,
2013-03-08 19:58:00,41.0,30.6,30.20,NW,309,3.0,6.0,66,0.00,,,0.00,meteohub,2013-03-09 03:58:00,
2013-03-08 20:03:00,40.8,31.5,30.20,NW,309,4.0,5.0,69,0.00,,,0.00,meteohub,2013-03-09 04:03:00,
2013-03-08 20:08:00,40.6,31.3,30.20,WNW,299,4.0,4.0,69,0.00,,,0.00,meteohub,2013-03-09 04:08:00,
2013-03-08 20:13:00,40.6,31.3,30.20,NW,319,4.0,4.0,69,0.00,,,0.00,meteohub,2013-03-09 04:13:00,
2013-03-08 20:18:00,40.5,31.8,30.20,West,275,3.0,5.0,71,0.00,,,0.00,meteohub,2013-03-09 04:18:00,
2013-03-08 20:23:00,40.5,32.2,30.20,NW,311,4.0,5.0,72,0.00,,,0.00,meteohub,2013-03-09 04:23:00,
2013-03-08 20:28:00,40.5,32.5,30.20,WNW,283,4.0,5.0,73,0.00,,,0.00,meteohub,2013-03-09 04:28:00,
2013-03-08 20:33:00,40.5,32.5,30.20,NW,309,3.0,5.0,73,0.00,,,0.00,meteohub,2013-03-09 04:33:00,
2013-03-08 20:38:00,40.5,32.2,30.20,West,259,4.0,5.0,72,0.00,,,0.00,meteohub,2013-03-09 04:38:00,
2013-03-08 20:43:00,40.3,32.0,30.20,West,259,3.0,5.0,72,0.00,,,0.00,meteohub,2013-03-09 04:43:00,
2013-03-08 20:48:00,40.3,33.1,30.20,WNW,300,3.0,5.0,75,0.00,,,0.00,meteohub,2013-03-09 04:48:00,
2013-03-08 20:53:00,39.9,32.9,30.23,WNW,300,0.0,4.0,76,0.00,,,0.00,meteohub,2013-03-09 04:53:00,
2013-03-08 20:58:00,39.7,33.1,30.23,WNW,300,3.0,4.0,77,0.00,,,0.00,meteohub,2013-03-09 04:58:00,
2013-03-08 21:00:00,39.7,33.4,30.23,WNW,300,2.0,4.0,78,0.00,,,0.00,meteohub,2013-03-09 05:00:00,
2013-03-08 21:05:00,39.7,34.2,30.23,WNW,300,3.0,4.0,80,0.00,,,0.00,meteohub,2013-03-09 05:05:00,
2013-03-08 21:10:00,39.7,34.3,30.23,West,278,0.0,4.0,81,0.00,,,0.00,meteohub,2013-03-09 05:10:00,
2013-03-08 21:15:00,39.6,34.5,30.23,West,278,0.0,4.0,82,0.00,,,0.00,meteohub,2013-03-09 05:15:00,
2013-03-08 21:20:00,39.6,34.9,30.23,West,278,0.0,4.0,83,0.00,,,0.00,meteohub,2013-03-09 05:20:00,
2013-03-08 21:25:00,39.4,34.0,30.23,West,278,0.0,0.0,81,0.00,,,0.00,meteohub,2013-03-09 05:25:00,
2013-03-08 21:30:00,39.4,34.0,30.23,West,278,0.0,0.0,81,0.00,,,0.00,meteohub,2013-03-09 05:30:00,
2013-03-08 21:35:00,39.2,33.8,30.23,West,278,0.0,0.0,81,0.00,,,0.00,meteohub,2013-03-09 05:35:00,
2013-03-08 21:40:00,39.2,33.8,30.23,West,278,0.0,0.0,81,0.00,,,0.00,meteohub,2013-03-09 05:40:00,
2013-03-08 21:45:00,39.2,34.2,30.23,West,278,0.0,0.0,82,0.00,,,0.00,meteohub,2013-03-09 05:45:00,
2013-03-08 21:50:00,39.2,34.7,30.23,West,278,0.0,0.0,84,0.00,,,0.00,meteohub,2013-03-09 05:50:00,
2013-03-08 21:55:00,39.2,35.4,30.23,West,278,0.0,0.0,86,0.00,,,0.00,meteohub,2013-03-09 05:55:00,
2013-03-08 22:00:00,39.2,35.4,30.23,West,278,0.0,0.0,86,0.00,,,0.00,meteohub,2013-03-09 06:00:00,
2013-03-08 22:06:00,38.8,35.1,30.23,West,278,0.0,0.0,86,0.00,,,0.00,meteohub,2013-03-09 06:06:00,
2013-03-08 22:11:00,38.7,34.9,30.23,West,278,0.0,0.0,86,0.00,,,0.00,meteohub,2013-03-09 06:11:00,
2013-03-08 22:16:00,38.7,34.9,30.23,West,278,0.0,0.0,86,0.00,,,0.00,meteohub,2013-03-09 06:16:00,
2013-03-08 22:21:00,38.7,35.1,30.23,West,278,0.0,0.0,87,0.00,,,0.00,meteohub,2013-03-09 06:21:00,
2013-03-08 22:26:00,38.7,35.1,30.23,West,278,0.0,0.0,87,0.00,,,0.00,meteohub,2013-03-09 06:26:00,
2013-03-08 22:31:00,38.7,35.8,30.23,West,278,0.0,0.0,89,0.00,,,0.00,meteohub,2013-03-09 06:31:00,
2013-03-08 22:36:00,38.7,36.5,30.23,West,278,0.0,0.0,92,0.00,,,0.00,meteohub,2013-03-09 06:36:00,
2013-03-08 22:41:00,38.7,36.9,30.23,West,278,0.0,0.0,93,0.00,,,0.00,meteohub,2013-03-09 06:41:00,
2013-03-08 22:46:00,38.7,37.0,30.23,West,278,0.0,0.0,94,0.00,,,0.00,meteohub,2013-03-09 06:46:00,
2013-03-08 22:51:00,38.8,37.8,30.23,SE,136,3.0,5.0,96,0.00,,,0.00,meteohub,2013-03-09 06:51:00,
2013-03-08 22:56:00,38.8,37.8,30.23,SE,136,0.0,5.0,96,0.00,,,0.00,meteohub,2013-03-09 06:56:00,
2013-03-08 23:01:00,38.7,37.6,30.23,SE,136,0.0,5.0,96,0.00,,,0.00,meteohub,2013-03-09 07:01:00,
2013-03-08 23:06:00,38.5,37.4,30.23,SE,136,0.0,4.0,96,0.00,,,0.00,meteohub,2013-03-09 07:06:00,
2013-03-08 23:11:00,38.3,37.2,30.23,SE,135,0.0,0.0,96,0.00,,,0.00,meteohub,2013-03-09 07:11:00,
2013-03-08 23:16:00,38.1,37.0,30.23,SE,136,0.0,0.0,96,0.00,,,0.00,meteohub,2013-03-09 07:16:00,
2013-03-08 23:21:00,38.1,37.0,30.23,SE,136,0.0,0.0,96,0.00,,,0.00,meteohub,2013-03-09 07:21:00,
2013-03-08 23:26:00,38.1,37.0,30.26,SE,136,0.0,0.0,96,0.00,,,0.00,meteohub,2013-03-09 07:26:00,
2013-03-08 23:31:00,38.1,37.0,30.26,SE,136,0.0,0.0,96,0.00,,,0.00,meteohub,2013-03-09 07:31:00,
2013-03-08 23:36:00,37.9,36.9,30.26,SE,136,0.0,0.0,96,0.00,,,0.00,meteohub,2013-03-09 07:36:00,
2013-03-08 23:41:00,37.9,36.9,30.26,SE,136,0.0,0.0,96,0.00,,,0.00,meteohub,2013-03-09 07:41:00,
2013-03-08 23:46:00,37.8,36.7,30.26,SE,136,0.0,0.0,96,0.00,,,0.00,meteohub,2013-03-09 07:46:00,
2013-03-08 23:51:00,37.8,36.7,30.26,SE,135,0.0,0.0,96,0.00,,,0.00,meteohub,2013-03-09 07:51:00,
2013-03-08 23:56:00,37.6,36.5,30.26,SE,136,0.0,0.0,96,0.00,,,0.00,meteohub,2013-03-09 07:56:00,